Time;durP1;ratioP1;P1;durP2;ratioP2;P2;SDS_P1;SDS_P2;PMS_P1;PMS_P2;Temp;Humidity;BMP_temperature;BMP_pressure;BME280_temperature;BME280_humidity;BME280_pressure;Samples;Min_cycle;Max_cycle;Signal;HPM_P1;HPM_P2
2022/12/04 00:01:44;;;;;;;;;;;;;;;;;;5014583;28;19925;-91
2022/12/04 00:04:10;;;;;;;;;;;;;;;;;;4998572;28;19921;-90
2022/12/04 00:06:36;;;;;;;;;;;;;;;;;;4998526;28;19921;-91
2022/12/04 00:09:02;;;;;;;;;;;;;;;;;;5014734;28;20296;-90
2022/12/04 00:11:28;;;;;;;;;;;;;;;;;;4998231;28;19932;-90
2022/12/04 00:13:54;;;;;;;;;;;;;;;;;;4998314;28;19928;-90
2022/12/04 00:16:20;;;;;;;;;;;;;;;;;;5014613;28;19921;-90
2022/12/04 00:18:46;;;;;;;;;;;;;;;;;;4998122;28;19965;-90
2022/12/04 00:21:12;;;;;;;;;;;;;;;;;;4998215;28;19967;-90
2022/12/04 00:23:37;;;;;;;;;;;;;;;;;;5014395;28;19998;-90
2022/12/04 00:26:03;;;;;;;;;;;;;;;;;;4998162;28;19921;-91
2022/12/04 00:28:29;;;;;;;;;;;;;;;;;;4998217;28;20251;-90
2022/12/04 00:30:55;;;;;;;;;;;;;;;;;;5014249;28;19929;-90
2022/12/04 00:33:21;;;;;;;;;;;;;;;;;;4998497;28;19937;-90
2022/12/04 00:35:47;;;;;;;;;;;;;;;;;;4998526;28;19920;-90
2022/12/04 00:38:13;;;;;;;;;;;;;;;;;;4998283;28;19927;-90
2022/12/04 00:40:39;;;;;;;;;;;;;;;;;;4997724;28;19931;-90
2022/12/04 00:43:05;;;;;;;;;;;;;;;;;;5014441;28;19931;-90
2022/12/04 00:45:31;;;;;;;;;;;;;;;;;;4997947;28;19921;-89
2022/12/04 00:47:56;;;;;;;;;;;;;;;;;;5014533;28;19957;-90
2022/12/04 00:50:22;;;;;;;;;;;;;;;;;;5014075;28;19949;-89
2022/12/04 00:52:48;;;;;;;;;;;;;;;;;;5014403;28;20344;-89
2022/12/04 00:55:14;;;;;;;;;;;;;;;;;;4997998;28;19971;-89
2022/12/04 00:57:40;;;;;;;;;;;;;;;;;;5014208;28;19928;-90
2022/12/04 01:00:06;;;;;;;;;;;;;;;;;;5014172;28;19944;-90
2022/12/04 01:02:32;;;;;;;;;;;;;;;;;;4997747;28;20001;-89
2022/12/04 01:04:58;;;;;;;;;;;;;;;;;;5001410;28;20383;-89
2022/12/04 01:07:24;;;;;;;;;;;;;;;;;;5001345;28;19921;-89
2022/12/04 01:09:50;;;;;;;;;;;;;;;;;;5001346;28;19925;-90
2022/12/04 01:12:16;;;;;;;;;;;;;;;;;;5001123;28;20008;-89
2022/12/04 01:14:42;;;;;;;;;;;;;;;;;;5001152;28;19999;-89
2022/12/04 01:17:07;;;;;;;;;;;;;;;;;;5001259;28;19982;-90
2022/12/04 01:19:33;;;;;;;;;;;;;;;;;;5001406;28;19921;-89
2022/12/04 01:21:59;;;;;;;;;;;;;;;;;;5001141;28;19944;-89
2022/12/04 01:24:25;;;;;;;;;;;;;;;;;;5001080;28;20089;-89
2022/12/04 01:26:51;;;;;;;;;;;;;;;;;;5001001;28;20019;-89
2022/12/04 01:29:17;;;;;;;;;;;;;;;;;;5017127;28;19928;-90
2022/12/04 01:31:43;;;;;;;;;;;;;;;;;;5017145;28;19922;-89
2022/12/04 01:34:12;;;;;;;;;;;;;;;;;;5001569;28;19921;-89
2022/12/04 01:36:38;;;;;;;;;;;;;;;;;;5000791;28;19928;-89
2022/12/04 01:39:04;;;;;;;;;;;;;;;;;;5001170;28;20280;-89
2022/12/04 01:41:30;;;;;;;;;;;;;;;;;;5000747;28;19925;-89
2022/12/04 01:43:56;;;;;;;;;;;;;;;;;;5000719;28;19931;-90
2022/12/04 01:46:22;;;;;;;;;;;;;;;;;;5000667;28;19925;-89
2022/12/04 01:48:48;;;;;;;;;;;;;;;;;;5016905;28;20018;-89
2022/12/04 01:51:15;;;;;;;;;;;;;;;;;;5000277;28;20492;-88
2022/12/04 01:53:41;;;;;;;;;;;;;;;;;;5000466;28;19961;-88
2022/12/04 01:56:07;;;;;;;;;;;;;;;;;;5016534;28;19928;-89
2022/12/04 01:58:32;;;;;;;;;;;;;;;;;;5000239;28;19920;-89
2022/12/04 02:00:58;;;;;;;;;;;;;;;;;;5016450;28;19921;-89
2022/12/04 02:03:24;;;;;;;;;;;;;;;;;;5016799;28;19932;-89
2022/12/04 02:05:50;;;;;;;;;;;;;;;;;;5000193;28;19921;-89
2022/12/04 02:08:16;;;;;;;;;;;;;;;;;;5016319;28;19921;-89
2022/12/04 02:10:42;;;;;;;;;;;;;;;;;;4999962;28;19976;-89
2022/12/04 02:13:09;;;;;;;;;;;;;;;;;;5016364;28;19929;-89
2022/12/04 02:15:35;;;;;;;;;;;;;;;;;;4999935;28;20019;-89
2022/12/04 02:18:01;;;;;;;;;;;;;;;;;;5016202;28;20011;-88
2022/12/04 02:20:27;;;;;;;;;;;;;;;;;;5000087;28;19950;-90
2022/12/04 02:22:54;;;;;;;;;;;;;;;;;;5016561;28;19921;-89
2022/12/04 02:25:20;;;;;;;;;;;;;;;;;;5016520;28;20345;-90
2022/12/04 02:27:46;;;;;;;;;;;;;;;;;;5016284;28;19964;-90
2022/12/04 02:30:12;;;;;;;;;;;;;;;;;;4999718;28;20019;-90
2022/12/04 02:32:38;;;;;;;;;;;;;;;;;;5000058;28;20353;-90
2022/12/04 02:35:04;;;;;;;;;;;;;;;;;;4999567;28;19928;-90
2022/12/04 02:37:30;;;;;;;;;;;;;;;;;;4999716;28;19965;-90
2022/12/04 02:39:56;;;;;;;;;;;;;;;;;;5015879;28;20015;-90
2022/12/04 02:42:22;;;;;;;;;;;;;;;;;;4999244;28;20432;-90
2022/12/04 02:44:48;;;;;;;;;;;;;;;;;;5015732;28;20016;-90
2022/12/04 02:47:14;;;;;;;;;;;;;;;;;;4999311;28;19967;-90
2022/12/04 02:49:40;;;;;;;;;;;;;;;;;;4999460;28;20084;-90
2022/12/04 02:52:05;;;;;;;;;;;;;;;;;;5015573;28;20420;-90
2022/12/04 02:54:31;;;;;;;;;;;;;;;;;;4999137;28;20031;-90
2022/12/04 02:56:57;;;;;;;;;;;;;;;;;;4999230;28;19964;-90
2022/12/04 02:59:23;;;;;;;;;;;;;;;;;;4999426;28;19960;-89
2022/12/04 03:01:49;;;;;;;;;;;;;;;;;;4999072;28;19927;-90
2022/12/04 03:04:15;;;;;;;;;;;;;;;;;;4999083;28;20011;-90
2022/12/04 03:06:41;;;;;;;;;;;;;;;;;;5015554;28;19921;-90
2022/12/04 03:09:07;;;;;;;;;;;;;;;;;;5015442;28;19921;-90
2022/12/04 03:11:33;;;;;;;;;;;;;;;;;;4998964;28;20442;-90
2022/12/04 03:14:00;;;;;;;;;;;;;;;;;;4998953;28;22523;-89
2022/12/04 03:16:26;;;;;;;;;;;;;;;;;;5015560;28;20029;-90
2022/12/04 03:18:52;;;;;;;;;;;;;;;;;;4999019;28;20012;-90
2022/12/04 03:21:18;;;;;;;;;;;;;;;;;;4998914;28;20007;-90
2022/12/04 03:23:44;;;;;;;;;;;;;;;;;;5015406;28;19921;-89
2022/12/04 03:26:10;;;;;;;;;;;;;;;;;;4998741;28;20372;-90
2022/12/04 03:28:36;;;;;;;;;;;;;;;;;;5015410;28;19979;-90
2022/12/04 03:31:02;;;;;;;;;;;;;;;;;;5015110;28;19932;-90
2022/12/04 03:33:28;;;;;;;;;;;;;;;;;;4998904;28;19921;-89
2022/12/04 03:35:54;;;;;;;;;;;;;;;;;;4998774;28;20008;-89
2022/12/04 03:38:19;;;;;;;;;;;;;;;;;;5015428;28;19925;-89
2022/12/04 03:40:45;;;;;;;;;;;;;;;;;;4998591;28;19932;-89
2022/12/04 03:43:11;;;;;;;;;;;;;;;;;;5015080;28;19982;-89
2022/12/04 03:45:37;;;;;;;;;;;;;;;;;;5015008;28;19921;-89
2022/12/04 03:48:03;;;;;;;;;;;;;;;;;;5015128;28;19921;-90
2022/12/04 03:50:29;;;;;;;;;;;;;;;;;;5014893;28;20438;-89
2022/12/04 03:52:55;;;;;;;;;;;;;;;;;;4998544;28;19925;-89
2022/12/04 03:55:21;;;;;;;;;;;;;;;;;;4998747;28;19964;-89
2022/12/04 03:57:47;;;;;;;;;;;;;;;;;;5015409;28;20011;-89
2022/12/04 04:00:13;;;;;;;;;;;;;;;;;;5014910;28;19971;-91
2022/12/04 04:02:38;;;;;;;;;;;;;;;;;;4998656;28;19921;-91
2022/12/04 04:05:04;;;;;;;;;;;;;;;;;;4998496;28;19925;-91
2022/12/04 04:07:30;;;;;;;;;;;;;;;;;;4998876;28;19921;-91
2022/12/04 04:09:56;;;;;;;;;;;;;;;;;;4998336;28;19929;-90
2022/12/04 04:12:22;;;;;;;;;;;;;;;;;;4998534;28;19928;-91
2022/12/04 04:25:47;;;;;;;;;;;;;;;;;;5014834;28;19928;-91
2022/12/04 04:28:13;;;;;;;;;;;;;;;;;;5014616;28;19951;-90
2022/12/04 04:30:39;;;;;;;;;;;;;;;;;;4998034;28;19975;-91
2022/12/04 04:33:04;;;;;;;;;;;;;;;;;;4998318;28;19968;-91
2022/12/04 04:35:30;;;;;;;;;;;;;;;;;;4998424;28;19921;-91
2022/12/04 04:37:56;;;;;;;;;;;;;;;;;;4999029;28;20360;-91
2022/12/04 04:40:22;;;;;;;;;;;;;;;;;;5001997;28;19925;-91
2022/12/04 04:42:48;;;;;;;;;;;;;;;;;;5002378;28;20004;-91
2022/12/04 04:45:14;;;;;;;;;;;;;;;;;;5018306;28;20287;-90
2022/12/04 04:47:40;;;;;;;;;;;;;;;;;;5018957;28;20055;-91
2022/12/04 04:50:06;;;;;;;;;;;;;;;;;;5001957;28;20368;-91
2022/12/04 04:52:32;;;;;;;;;;;;;;;;;;5018369;28;19979;-90
2022/12/04 04:54:58;;;;;;;;;;;;;;;;;;5001869;28;19972;-91
2022/12/04 04:57:24;;;;;;;;;;;;;;;;;;5018052;28;19940;-90
2022/12/04 04:59:49;;;;;;;;;;;;;;;;;;5001615;28;19928;-91
2022/12/04 05:02:15;;;;;;;;;;;;;;;;;;5018343;28;20361;-91
2022/12/04 05:04:41;;;;;;;;;;;;;;;;;;5001926;28;20261;-91
2022/12/04 05:07:07;;;;;;;;;;;;;;;;;;5001877;28;20364;-91
2022/12/04 05:09:33;;;;;;;;;;;;;;;;;;5001592;28;20012;-91
2022/12/04 05:11:59;;;;;;;;;;;;;;;;;;5001617;28;20304;-91
2022/12/04 05:14:25;;;;;;;;;;;;;;;;;;5001477;28;20291;-90
2022/12/04 05:16:51;;;;;;;;;;;;;;;;;;5001951;28;19928;-90
2022/12/04 05:22:02;;;;;;;;;;;;;;;;;;5017822;28;19921;-91
2022/12/04 05:24:27;;;;;;;;;;;;;;;;;;5017700;28;19927;-89
2022/12/04 05:26:53;;;;;;;;;;;;;;;;;;5017654;28;19998;-90
2022/12/04 05:29:19;;;;;;;;;;;;;;;;;;5017468;28;19980;-90
2022/12/04 05:31:45;;;;;;;;;;;;;;;;;;5001047;28;19925;-90
2022/12/04 05:34:11;;;;;;;;;;;;;;;;;;5001099;28;20261;-89
2022/12/04 05:36:37;;;;;;;;;;;;;;;;;;5001148;28;19921;-91
2022/12/04 05:39:03;;;;;;;;;;;;;;;;;;5017509;28;19928;-90
2022/12/04 05:41:29;;;;;;;;;;;;;;;;;;5000710;28;20265;-89
2022/12/04 05:43:55;;;;;;;;;;;;;;;;;;5000998;28;19929;-90
2022/12/04 05:46:21;;;;;;;;;;;;;;;;;;5017129;28;19975;-89
2022/12/04 05:48:46;;;;;;;;;;;;;;;;;;5000599;28;19975;-89
2022/12/04 05:51:12;;;;;;;;;;;;;;;;;;5017014;28;20426;-90
2022/12/04 05:53:38;;;;;;;;;;;;;;;;;;5000851;28;19921;-90
2022/12/04 05:56:04;;;;;;;;;;;;;;;;;;5000984;28;19921;-90
2022/12/04 05:58:30;;;;;;;;;;;;;;;;;;5000985;28;19922;-89
2022/12/04 06:00:56;;;;;;;;;;;;;;;;;;5000647;28;19932;-89
2022/12/04 06:03:22;;;;;;;;;;;;;;;;;;5000501;28;19921;-89
2022/12/04 06:05:48;;;;;;;;;;;;;;;;;;5016767;28;19921;-89
2022/12/04 06:08:14;;;;;;;;;;;;;;;;;;5017023;28;20395;-89
2022/12/04 06:10:40;;;;;;;;;;;;;;;;;;5000201;28;19925;-88
2022/12/04 06:13:05;;;;;;;;;;;;;;;;;;5016893;28;19921;-90
2022/12/04 06:15:31;;;;;;;;;;;;;;;;;;5016629;28;19921;-89
2022/12/04 06:17:57;;;;;;;;;;;;;;;;;;5016460;28;20292;-89
2022/12/04 06:20:23;;;;;;;;;;;;;;;;;;5016468;28;19921;-89
2022/12/04 06:22:49;;;;;;;;;;;;;;;;;;5016487;28;19921;-89
2022/12/04 06:25:15;;;;;;;;;;;;;;;;;;5000026;28;19973;-89
2022/12/04 06:27:42;;;;;;;;;;;;;;;;;;5016363;28;20012;-90
2022/12/04 06:30:08;;;;;;;;;;;;;;;;;;5000134;28;19925;-89
2022/12/04 06:32:34;;;;;;;;;;;;;;;;;;4999915;28;19927;-89
2022/12/04 06:35:00;;;;;;;;;;;;;;;;;;4999850;28;20395;-89
2022/12/04 06:37:26;;;;;;;;;;;;;;;;;;5016232;28;19921;-89
2022/12/04 06:39:52;;;;;;;;;;;;;;;;;;5015911;28;19921;-89
2022/12/04 06:42:18;;;;;;;;;;;;;;;;;;4999696;28;19979;-89
2022/12/04 06:44:44;;;;;;;;;;;;;;;;;;5016564;28;19921;-89
2022/12/04 06:47:10;;;;;;;;;;;;;;;;;;5000075;28;19921;-89
2022/12/04 06:49:36;;;;;;;;;;;;;;;;;;5015905;28;19928;-89
2022/12/04 06:52:02;;;;;;;;;;;;;;;;;;5016019;28;20156;-89
2022/12/04 06:54:28;;;;;;;;;;;;;;;;;;4999448;28;19921;-91
2022/12/04 06:56:53;;;;;;;;;;;;;;;;;;4999502;28;20007;-90
2022/12/04 06:59:19;;;;;;;;;;;;;;;;;;4999516;28;20400;-91
2022/12/04 07:01:45;;;;;;;;;;;;;;;;;;5014913;28;19932;-90
2022/12/04 07:04:12;;;;;;;;;;;;;;;;;;5015850;28;20327;-91
2022/12/04 07:06:37;;;;;;;;;;;;;;;;;;4999472;28;19990;-90
2022/12/04 07:09:03;;;;;;;;;;;;;;;;;;4999120;28;20073;-91
2022/12/04 07:11:29;;;;;;;;;;;;;;;;;;4999004;28;19925;-90
2022/12/04 07:13:55;;;;;;;;;;;;;;;;;;5015464;28;20343;-90
2022/12/04 07:16:21;;;;;;;;;;;;;;;;;;5015469;28;19921;-90
2022/12/04 07:18:52;;;;;;;;;;;;;;;;;;5015459;28;19921;-90
2022/12/04 07:21:18;;;;;;;;;;;;;;;;;;4998919;28;19928;-89
2022/12/04 07:23:44;;;;;;;;;;;;;;;;;;4999002;28;19921;-90
2022/12/04 07:26:10;;;;;;;;;;;;;;;;;;4999259;28;20016;-90
2022/12/04 07:28:36;;;;;;;;;;;;;;;;;;5015386;28;19971;-89
2022/12/04 07:31:03;;;;;;;;;;;;;;;;;;4998912;28;19925;-89
2022/12/04 07:33:29;;;;;;;;;;;;;;;;;;4998867;28;19922;-89
2022/12/04 07:35:55;;;;;;;;;;;;;;;;;;4999342;28;19948;-89
2022/12/04 07:38:21;;;;;;;;;;;;;;;;;;5015598;28;19983;-90
2022/12/04 07:40:47;;;;;;;;;;;;;;;;;;4998817;28;20392;-89
2022/12/04 07:43:13;;;;;;;;;;;;;;;;;;5015563;28;19927;-91
2022/12/04 07:45:39;;;;;;;;;;;;;;;;;;4999537;28;19941;-90
2022/12/04 07:48:05;;;;;;;;;;;;;;;;;;5015246;28;19925;-89
2022/12/04 07:50:30;;;;;;;;;;;;;;;;;;4998727;28;19932;-92
2022/12/04 07:52:56;;;;;;;;;;;;;;;;;;5015017;28;19968;-88
2022/12/04 07:55:25;;;;;;;;;;;;;;;;;;5015537;28;19929;-93
2022/12/04 07:57:51;;;;;;;;;;;;;;;;;;5015063;28;19929;-90
2022/12/04 08:00:17;;;;;;;;;;;;;;;;;;5015425;28;19921;-90
2022/12/04 08:02:44;;;;;;;;;;;;;;;;;;4998785;28;20396;-91
2022/12/04 08:05:10;;;;;;;;;;;;;;;;;;4998316;28;20369;-91
2022/12/04 08:07:36;;;;;;;;;;;;;;;;;;5014955;28;20220;-88
2022/12/04 08:10:02;;;;;;;;;;;;;;;;;;5014614;28;19932;-91
2022/12/04 08:12:28;;;;;;;;;;;;;;;;;;5001052;28;19928;-90
2022/12/04 08:14:54;;;;;;;;;;;;;;;;;;5004938;28;19928;-92
2022/12/04 08:17:23;;;;;;;;;;;;;;;;;;5005334;28;20016;-89
2022/12/04 08:19:49;;;;;;;;;;;;;;;;;;5021150;28;19924;-91
2022/12/04 08:22:15;;;;;;;;;;;;;;;;;;5021456;28;19928;-88
2022/12/04 08:24:41;;;;;;;;;;;;;;;;;;5021608;28;19972;-89
2022/12/04 08:27:06;;;;;;;;;;;;;;;;;;5021404;28;19921;-90
2022/12/04 08:29:32;;;;;;;;;;;;;;;;;;5005073;28;19954;-90
2022/12/04 08:31:58;;;;;;;;;;;;;;;;;;5005359;28;20206;-91
2022/12/04 08:34:24;;;;;;;;;;;;;;;;;;5004953;28;19921;-90
2022/12/04 08:36:50;;;;;;;;;;;;;;;;;;5004726;28;19921;-90
2022/12/04 08:39:16;;;;;;;;;;;;;;;;;;5021206;28;19928;-89
2022/12/04 08:41:42;;;;;;;;;;;;;;;;;;5004321;28;20284;-90
2022/12/04 08:44:08;;;;;;;;;;;;;;;;;;5004946;28;20296;-89
2022/12/04 08:46:34;;;;;;;;;;;;;;;;;;5004775;28;20349;-91
2022/12/04 08:49:00;;;;;;;;;;;;;;;;;;5004500;28;19979;-87
2022/12/04 08:51:26;;;;;;;;;;;;;;;;;;5004174;28;19925;-88
2022/12/04 08:53:51;;;;;;;;;;;;;;;;;;5004580;28;19921;-87
2022/12/04 08:56:20;;;;;;;;;;;;;;;;;;5005687;28;19921;-90
2022/12/04 08:58:48;;;;;;;;;;;;;;;;;;5021113;28;19921;-89
2022/12/04 09:01:14;;;;;;;;;;;;;;;;;;5020829;28;19925;-90
2022/12/04 09:03:39;;;;;;;;;;;;;;;;;;5004625;28;19931;-89
2022/12/04 09:06:05;;;;;;;;;;;;;;;;;;5004575;28;20368;-89
2022/12/04 09:08:31;;;;;;;;;;;;;;;;;;5020662;28;19921;-89
2022/12/04 09:10:57;;;;;;;;;;;;;;;;;;5020729;28;19925;-88
2022/12/04 09:13:23;;;;;;;;;;;;;;;;;;5020688;28;19921;-89
2022/12/04 09:15:49;;;;;;;;;;;;;;;;;;5020846;28;19928;-87
2022/12/04 09:18:15;;;;;;;;;;;;;;;;;;5004442;28;19932;-89
2022/12/04 09:20:41;;;;;;;;;;;;;;;;;;5020769;28;19975;-91
2022/12/04 09:23:07;;;;;;;;;;;;;;;;;;5003907;28;19967;-89
2022/12/04 09:25:33;;;;;;;;;;;;;;;;;;5016275;28;20034;-89
2022/12/04 09:27:58;;;;;;;;;;;;;;;;;;5017587;28;20007;-89
2022/12/04 09:30:24;;;;;;;;;;;;;;;;;;5017397;28;20574;-90
2022/12/04 09:32:50;;;;;;;;;;;;;;;;;;5017557;28;19928;-90
2022/12/04 09:35:16;;;;;;;;;;;;;;;;;;5017481;28;20284;-90
2022/12/04 09:37:42;;;;;;;;;;;;;;;;;;5017067;28;19921;-90
2022/12/04 09:40:08;;;;;;;;;;;;;;;;;;5000565;28;19933;-89
2022/12/04 09:42:34;;;;;;;;;;;;;;;;;;5017082;28;19928;-90
2022/12/04 09:45:00;;;;;;;;;;;;;;;;;;5000517;28;19921;-92
2022/12/04 09:47:26;;;;;;;;;;;;;;;;;;5000980;28;19971;-91
2022/12/04 09:49:52;;;;;;;;;;;;;;;;;;5000749;28;20019;-89
2022/12/04 09:52:18;;;;;;;;;;;;;;;;;;5000761;28;19921;-89
2022/12/04 09:54:44;;;;;;;;;;;;;;;;;;5016765;28;19921;-89
2022/12/04 09:57:10;;;;;;;;;;;;;;;;;;5016733;28;19928;-89
2022/12/04 09:59:36;;;;;;;;;;;;;;;;;;5016722;28;19937;-89
2022/12/04 10:02:02;;;;;;;;;;;;;;;;;;5016538;28;19927;-89
2022/12/04 10:04:28;;;;;;;;;;;;;;;;;;5000569;28;19921;-89
2022/12/04 10:06:53;;;;;;;;;;;;;;;;;;5000572;28;20307;-89
2022/12/04 10:09:19;;;;;;;;;;;;;;;;;;5016548;28;19968;-89
2022/12/04 10:11:45;;;;;;;;;;;;;;;;;;5016285;28;20029;-90
2022/12/04 10:14:11;;;;;;;;;;;;;;;;;;5016572;28;19971;-91
2022/12/04 10:16:37;;;;;;;;;;;;;;;;;;5000305;28;19932;-93
2022/12/04 10:19:03;;;;;;;;;;;;;;;;;;4999297;28;19921;-90
2022/12/04 10:21:29;;;;;;;;;;;;;;;;;;5000029;28;19948;-90
2022/12/04 10:23:55;;;;;;;;;;;;;;;;;;5032424;28;19936;-91
2022/12/04 10:26:21;;;;;;;;;;;;;;;;;;5017339;28;19928;-91
2022/12/04 10:28:47;;;;;;;;;;;;;;;;;;4999861;28;19928;-90
2022/12/04 10:31:13;;;;;;;;;;;;;;;;;;4999863;28;19983;-90
2022/12/04 10:33:38;;;;;;;;;;;;;;;;;;4999874;28;19925;-90
2022/12/04 10:36:04;;;;;;;;;;;;;;;;;;5015275;28;19921;-90
2022/12/04 10:38:30;;;;;;;;;;;;;;;;;;4999981;28;19921;-90
2022/12/04 10:40:56;;;;;;;;;;;;;;;;;;5006508;28;20376;-91
2022/12/04 10:43:23;;;;;;;;;;;;;;;;;;5014660;28;19921;-96
2022/12/04 10:45:49;;;;;;;;;;;;;;;;;;4996627;28;19976;-91
2022/12/04 10:48:15;;;;;;;;;;;;;;;;;;4996870;28;19925;-90
2022/12/04 10:50:41;;;;;;;;;;;;;;;;;;4996372;28;20369;-90
2022/12/04 10:53:07;;;;;;;;;;;;;;;;;;4996236;28;20418;-90
2022/12/04 10:55:33;;;;;;;;;;;;;;;;;;4996213;28;19929;-90
2022/12/04 10:58:01;;;;;;;;;;;;;;;;;;4996260;28;19922;-91
2022/12/04 11:00:27;;;;;;;;;;;;;;;;;;4996005;28;19925;-89
2022/12/04 11:02:53;;;;;;;;;;;;;;;;;;4996422;28;19971;-90
2022/12/04 11:05:19;;;;;;;;;;;;;;;;;;4996308;28;20297;-91
2022/12/04 11:07:45;;;;;;;;;;;;;;;;;;4996097;28;20372;-91
2022/12/04 11:10:10;;;;;;;;;;;;;;;;;;4996944;28;20008;-90
2022/12/04 11:12:36;;;;;;;;;;;;;;;;;;4995436;28;20059;-95
2022/12/04 11:15:02;;;;;;;;;;;;;;;;;;4996708;28;20016;-89
2022/12/04 11:17:28;;;;;;;;;;;;;;;;;;4996053;28;19921;-90
2022/12/04 11:19:54;;;;;;;;;;;;;;;;;;5002949;28;19922;-90
2022/12/04 11:22:20;;;;;;;;;;;;;;;;;;4999285;28;19921;-90
2022/12/04 11:24:46;;;;;;;;;;;;;;;;;;4996460;28;20351;-89
2022/12/04 11:27:12;;;;;;;;;;;;;;;;;;4995838;28;19969;-90
2022/12/04 11:29:38;;;;;;;;;;;;;;;;;;4995854;28;19928;-89
2022/12/04 11:32:04;;;;;;;;;;;;;;;;;;4995863;28;20075;-91
2022/12/04 11:34:30;;;;;;;;;;;;;;;;;;4995558;28;20416;-90
2022/12/04 11:36:56;;;;;;;;;;;;;;;;;;4995516;28;19925;-89
2022/12/04 11:39:21;;;;;;;;;;;;;;;;;;4995597;28;20234;-89
2022/12/04 11:41:48;;;;;;;;;;;;;;;;;;4995062;28;19925;-89
2022/12/04 11:44:14;;;;;;;;;;;;;;;;;;4995327;28;19932;-90
2022/12/04 11:46:40;;;;;;;;;;;;;;;;;;4995159;28;19921;-89
2022/12/04 11:49:06;;;;;;;;;;;;;;;;;;4995213;28;19927;-90
2022/12/04 11:51:32;;;;;;;;;;;;;;;;;;4995205;28;19926;-88
2022/12/04 11:53:58;;;;;;;;;;;;;;;;;;4995012;28;20288;-91
2022/12/04 11:56:24;;;;;;;;;;;;;;;;;;4995243;28;19921;-89
2022/12/04 11:58:50;;;;;;;;;;;;;;;;;;4995432;28;19972;-90
2022/12/04 12:01:16;;;;;;;;;;;;;;;;;;4995490;28;20325;-89
2022/12/04 12:03:42;;;;;;;;;;;;;;;;;;4994965;28;19922;-89
2022/12/04 12:06:08;;;;;;;;;;;;;;;;;;4995026;28;19960;-90
2022/12/04 12:08:34;;;;;;;;;;;;;;;;;;4994989;28;19977;-89
2022/12/04 12:11:00;;;;;;;;;;;;;;;;;;4994938;28;20023;-90
2022/12/04 12:13:26;;;;;;;;;;;;;;;;;;4995078;28;19921;-90
2022/12/04 12:15:53;;;;;;;;;;;;;;;;;;4995214;28;20069;-89
2022/12/04 12:18:18;;;;;;;;;;;;;;;;;;4994718;28;20377;-89
2022/12/04 12:20:44;;;;;;;;;;;;;;;;;;4995068;28;19932;-89
2022/12/04 12:23:10;;;;;;;;;;;;;;;;;;4994806;28;19925;-89
2022/12/04 12:25:36;;;;;;;;;;;;;;;;;;5010906;28;19922;-89
2022/12/04 12:28:02;;;;;;;;;;;;;;;;;;4978934;28;19925;-90
2022/12/04 12:30:28;;;;;;;;;;;;;;;;;;4978965;28;20352;-93
2022/12/04 12:32:54;;;;;;;;;;;;;;;;;;4978982;28;20009;-91
2022/12/04 12:35:20;;;;;;;;;;;;;;;;;;4978536;28;19928;-91
2022/12/04 12:37:46;;;;;;;;;;;;;;;;;;4994841;28;20017;-90
2022/12/04 12:40:12;;;;;;;;;;;;;;;;;;4981461;28;19926;-91
2022/12/04 12:42:37;;;;;;;;;;;;;;;;;;4998009;28;20063;-91
2022/12/04 12:45:03;;;;;;;;;;;;;;;;;;5014607;28;19920;-91
2022/12/04 12:47:29;;;;;;;;;;;;;;;;;;5014388;28;19921;-90
2022/12/04 12:49:55;;;;;;;;;;;;;;;;;;4998068;28;19929;-91
2022/12/04 12:52:21;;;;;;;;;;;;;;;;;;4998326;28;19921;-91
2022/12/04 12:54:47;;;;;;;;;;;;;;;;;;4998658;28;20272;-92
2022/12/04 12:57:13;;;;;;;;;;;;;;;;;;4998634;28;20286;-89
2022/12/04 12:59:39;;;;;;;;;;;;;;;;;;4999922;28;19921;-93
2022/12/04 13:02:05;;;;;;;;;;;;;;;;;;5002083;28;19931;-91
2022/12/04 13:04:31;;;;;;;;;;;;;;;;;;5018142;28;20020;-91
2022/12/04 13:06:57;;;;;;;;;;;;;;;;;;5018397;28;19983;-91
2022/12/04 13:09:24;;;;;;;;;;;;;;;;;;5002026;28;20015;-92
2022/12/04 13:11:50;;;;;;;;;;;;;;;;;;5001622;28;19925;-91
2022/12/04 13:14:16;;;;;;;;;;;;;;;;;;5001593;28;20123;-90
2022/12/04 13:16:42;;;;;;;;;;;;;;;;;;5018006;28;19921;-91
2022/12/04 13:19:08;;;;;;;;;;;;;;;;;;5001425;28;19930;-91
2022/12/04 13:21:34;;;;;;;;;;;;;;;;;;5018187;28;19975;-91
2022/12/04 13:23:59;;;;;;;;;;;;;;;;;;5018276;28;19953;-90
2022/12/04 13:26:25;;;;;;;;;;;;;;;;;;5001860;28;20264;-91
2022/12/04 13:28:51;;;;;;;;;;;;;;;;;;5001781;28;19928;-93
2022/12/04 13:31:19;;;;;;;;;;;;;;;;;;5001917;28;20085;-92
2022/12/04 13:33:45;;;;;;;;;;;;;;;;;;5001807;28;19925;-92
2022/12/04 13:36:10;;;;;;;;;;;;;;;;;;5001569;28;19921;-92
2022/12/04 13:38:37;;;;;;;;;;;;;;;;;;5017723;28;19928;-93
2022/12/04 13:41:08;;;;;;;;;;;;;;;;;;5018114;28;19965;-90
2022/12/04 13:43:34;;;;;;;;;;;;;;;;;;5017210;28;19976;-91
2022/12/04 13:46:00;;;;;;;;;;;;;;;;;;5017200;28;19927;-90
2022/12/04 13:48:26;;;;;;;;;;;;;;;;;;5000991;28;20307;-93
2022/12/04 13:50:52;;;;;;;;;;;;;;;;;;5017179;28;19925;-92
2022/12/04 13:53:18;;;;;;;;;;;;;;;;;;5000889;28;19964;-91
2022/12/04 13:55:44;;;;;;;;;;;;;;;;;;5017003;28;19976;-90
2022/12/04 13:58:10;;;;;;;;;;;;;;;;;;5016767;28;19968;-91
2022/12/04 14:00:36;;;;;;;;;;;;;;;;;;5000523;28;19929;-92
2022/12/04 14:03:02;;;;;;;;;;;;;;;;;;5017357;28;19975;-94
2022/12/04 14:05:31;;;;;;;;;;;;;;;;;;5001178;28;19921;-89
2022/12/04 14:07:57;;;;;;;;;;;;;;;;;;5000442;28;20082;-91
2022/12/04 14:10:25;;;;;;;;;;;;;;;;;;4999879;28;19932;-89
2022/12/04 14:12:51;;;;;;;;;;;;;;;;;;5016506;28;19922;-90
2022/12/04 14:15:17;;;;;;;;;;;;;;;;;;5000265;28;19921;-91
2022/12/04 14:17:43;;;;;;;;;;;;;;;;;;5000552;28;19921;-90
2022/12/04 14:20:09;;;;;;;;;;;;;;;;;;5016752;28;20361;-91
2022/12/04 14:22:36;;;;;;;;;;;;;;;;;;4999923;28;19921;-90
2022/12/04 14:25:02;;;;;;;;;;;;;;;;;;4999950;28;19928;-90
2022/12/04 14:27:28;;;;;;;;;;;;;;;;;;5016734;28;19921;-91
2022/12/04 14:29:56;;;;;;;;;;;;;;;;;;5000394;28;19932;-89
2022/12/04 14:32:22;;;;;;;;;;;;;;;;;;4999672;28;19921;-89
2022/12/04 14:34:48;;;;;;;;;;;;;;;;;;5000007;28;19925;-88
2022/12/04 14:37:14;;;;;;;;;;;;;;;;;;5000357;28;19928;-91
2022/12/04 14:39:42;;;;;;;;;;;;;;;;;;4999910;28;19921;-92
2022/12/04 14:42:08;;;;;;;;;;;;;;;;;;4999506;28;19925;-92
2022/12/04 14:44:34;;;;;;;;;;;;;;;;;;4999791;28;20483;-93
2022/12/04 14:47:00;;;;;;;;;;;;;;;;;;5000017;28;19921;-92
2022/12/04 14:49:26;;;;;;;;;;;;;;;;;;4999814;28;19921;-92
2022/12/04 14:51:52;;;;;;;;;;;;;;;;;;5000130;28;19954;-92
2022/12/04 14:54:18;;;;;;;;;;;;;;;;;;4999468;28;20000;-92
2022/12/04 14:56:43;;;;;;;;;;;;;;;;;;4999965;28;20067;-92
2022/12/04 14:59:09;;;;;;;;;;;;;;;;;;5000119;28;19921;-93
2022/12/04 15:01:35;;;;;;;;;;;;;;;;;;4999371;28;19929;-90
2022/12/04 15:04:02;;;;;;;;;;;;;;;;;;4999351;28;19921;-89
2022/12/04 15:06:28;;;;;;;;;;;;;;;;;;4999362;28;19976;-89
2022/12/04 15:12:32;;;;;;;;;;;;;;;;;;4999356;28;19924;-89
2022/12/04 15:14:24;;;;;;;;;;;;;;;;;;5015735;28;19925;-90
2022/12/04 15:16:50;;;;;;;;;;;;;;;;;;5015628;28;20383;-89
2022/12/04 15:19:17;;;;;;;;;;;;;;;;;;4999257;28;20236;-89
2022/12/04 15:21:43;;;;;;;;;;;;;;;;;;4998312;28;19921;-89
2022/12/04 15:24:09;;;;;;;;;;;;;;;;;;4998966;28;20019;-89
2022/12/04 15:26:35;;;;;;;;;;;;;;;;;;5012322;28;19925;-89
2022/12/04 15:29:01;;;;;;;;;;;;;;;;;;4995566;28;20012;-91
2022/12/04 15:31:27;;;;;;;;;;;;;;;;;;4995453;28;19925;-90
2022/12/04 15:33:53;;;;;;;;;;;;;;;;;;4995791;28;19921;-89
2022/12/04 15:36:19;;;;;;;;;;;;;;;;;;5011842;28;19929;-89
2022/12/04 15:38:45;;;;;;;;;;;;;;;;;;4995613;28;19925;-90
2022/12/04 15:41:10;;;;;;;;;;;;;;;;;;4995250;28;19992;-90
2022/12/04 15:43:36;;;;;;;;;;;;;;;;;;5011569;28;19922;-89
2022/12/04 15:46:02;;;;;;;;;;;;;;;;;;5012125;28;19921;-91
2022/12/04 15:48:28;;;;;;;;;;;;;;;;;;4995746;28;20361;-91
2022/12/04 15:50:54;;;;;;;;;;;;;;;;;;4995511;28;19925;-92
2022/12/04 15:53:20;;;;;;;;;;;;;;;;;;5012347;28;20019;-93
2022/12/04 15:55:46;;;;;;;;;;;;;;;;;;4996518;28;19925;-91
2022/12/04 15:58:12;;;;;;;;;;;;;;;;;;4998785;28;19921;-93
2022/12/04 16:00:38;;;;;;;;;;;;;;;;;;4999469;28;20356;-95
2022/12/04 16:03:06;;;;;;;;;;;;;;;;;;4998943;28;20384;-93
2022/12/04 16:05:38;;;;;;;;;;;;;;;;;;4999010;28;19967;-94
2022/12/04 16:08:04;;;;;;;;;;;;;;;;;;5015942;28;20370;-94
2022/12/04 16:10:30;;;;;;;;;;;;;;;;;;4998747;28;19931;-94
2022/12/04 16:12:56;;;;;;;;;;;;;;;;;;4998945;28;19929;-94
2022/12/04 16:15:22;;;;;;;;;;;;;;;;;;4998978;28;19990;-95
2022/12/04 16:17:48;;;;;;;;;;;;;;;;;;4998141;28;19921;-94
2022/12/04 16:20:16;;;;;;;;;;;;;;;;;;4999233;28;19921;-94
2022/12/04 16:22:45;;;;;;;;;;;;;;;;;;4998799;28;19925;-95
2022/12/04 16:25:11;;;;;;;;;;;;;;;;;;4997567;28;19927;-94
2022/12/04 16:27:37;;;;;;;;;;;;;;;;;;5014910;28;19925;-95
2022/12/04 16:30:12;;;;;;;;;;;;;;;;;;5019422;28;19972;-95
2022/12/04 16:32:38;;;;;;;;;;;;;;;;;;5030565;28;19931;-95
2022/12/04 16:35:04;;;;;;;;;;;;;;;;;;5019604;28;19960;-95
2022/12/04 16:37:30;;;;;;;;;;;;;;;;;;5002786;28;19972;-94
2022/12/04 16:39:56;;;;;;;;;;;;;;;;;;5018571;28;19921;-93
2022/12/04 16:42:22;;;;;;;;;;;;;;;;;;5018685;28;19927;-95
2022/12/04 16:44:48;;;;;;;;;;;;;;;;;;5019080;28;19928;-91
2022/12/04 16:47:14;;;;;;;;;;;;;;;;;;5021773;28;19928;-93
2022/12/04 16:49:40;;;;;;;;;;;;;;;;;;5018430;28;20015;-92
2022/12/04 16:52:06;;;;;;;;;;;;;;;;;;5018736;28;19926;-94
2022/12/04 16:54:32;;;;;;;;;;;;;;;;;;5018784;28;19920;-90